To NAV CANADA Home Page Login to a new session Search on AWWS site Feedback and Comments Disclaimer Vers la page française équivalente Tips FAQ What's new on the site To the Forecasts and Observations / NOTAM section To "File a Flight Plan" website Publications and other links Update of the User's profile FIC Telephone Numbers My Weather Data Folder Route Weather Data Regional Weather Data Local Weather Data To the Forecasts and Observations / NOTAM section
Request Generated 04/20/2014 at 05:43:09 UTC . Weather information available at that time is displayed.

METAR/TAF

EUREKA/NU    

METAR CWEU 200300Z CCA 08002KT 6SM -SN BKN050 OVC150 M23/M29 A2997 RMK SC6AC1 LAST OBS/NEXT AT 200600Z SN COV/MEDIUM PACK SLP151=
METAR CWEU 200300Z 08002KT 15SM -SN BKN050 OVC150 M23/M29 A2997 RMK SC6AC1 LAST OBS/NEXT AT 200600Z SN COV/MEDIUM PACK SLP151=
SPECI CWEU 200219Z CCA 00000KT 12SM -SN BKN050 BKN150 RMK SC6AC1=
SPECI CWEU 200219Z 00000KT 12SM BKN050 BKN150 RMK SC6AC1=
METAR CWEU 200200Z 08002KT 15SM BKN090 BKN150 M24/M29 A2996 RMK AS4AC0 SLP147=

*** REMARK        : Forecast period has ended; this was the last TAF issued
*** REMARQUE : La période de prévision est échue; ceci était le dernier TAF qui a été émis
TAF CYEU 192338Z 2000/2002 ADVISORY OFFSITE 00000KT P6SM FEW050
RMK NXT FCST WILL BE ISSUED AT 201045Z=
Your time UTC time
Weather data provided by Environment Canada and NAV CANADA